createdAt,value
2018-06-29T00:00:42.358Z,42.60
2018-06-29T00:03:11.767Z,41.23
2018-06-29T00:05:41.014Z,33.57
2018-06-29T00:08:10.332Z,44.80
2018-06-29T00:10:39.563Z,38.63
2018-06-29T00:13:09.025Z,43.33
2018-06-29T00:15:38.386Z,42.17
2018-06-29T00:18:07.668Z,65.43
2018-06-29T00:20:36.846Z,44.43
2018-06-29T00:23:06.080Z,38.70
2018-06-29T00:25:35.501Z,40.23
2018-06-29T00:28:04.885Z,43.87
2018-06-29T00:30:34.112Z,48.60
2018-06-29T00:33:03.412Z,47.90
2018-06-29T00:35:32.711Z,44.80
2018-06-29T00:38:02.111Z,46.00
2018-06-29T00:40:31.438Z,47.93
2018-06-29T00:43:01.023Z,53.00
2018-06-29T00:45:30.577Z,46.53
2018-06-29T00:47:59.952Z,45.67
2018-06-29T00:50:30.329Z,66.77
2018-06-29T00:53:00.374Z,42.27
2018-06-29T00:55:29.737Z,38.20
2018-06-29T00:57:59.058Z,44.20
2018-06-29T01:00:28.453Z,46.33
2018-06-29T01:02:57.692Z,44.80
2018-06-29T01:05:26.998Z,50.45
2018-06-29T01:07:56.364Z,51.00
2018-06-29T01:10:25.584Z,47.80
2018-06-29T01:12:54.956Z,45.70
2018-06-29T01:15:24.256Z,54.38
2018-06-29T01:17:53.821Z,51.33
2018-06-29T01:20:23.040Z,45.90
2018-06-29T01:22:52.329Z,47.33
2018-06-29T01:25:21.573Z,45.63
2018-06-29T01:27:50.775Z,45.30
2018-06-29T01:30:20.044Z,38.90
2018-06-29T01:32:49.409Z,37.70
2018-06-29T01:35:18.666Z,35.98
2018-06-29T01:37:47.889Z,42.93
2018-06-29T01:40:17.104Z,35.20
2018-06-29T01:42:46.355Z,41.43
2018-06-29T01:45:15.544Z,50.03
2018-06-29T01:47:45.258Z,36.27
2018-06-29T01:50:14.765Z,38.13
2018-06-29T01:52:43.998Z,40.87
2018-06-29T01:55:13.211Z,39.07
2018-06-29T01:57:42.428Z,39.40
2018-06-29T02:00:11.582Z,49.43
2018-06-29T02:02:40.828Z,45.23
2018-06-29T02:05:10.061Z,44.10
2018-06-29T02:07:39.293Z,44.83
2018-06-29T02:10:08.454Z,48.83
2018-06-29T02:12:37.682Z,46.63
2018-06-29T02:15:08.688Z,46.70
2018-06-29T02:17:38.649Z,55.67
2018-06-29T02:20:07.994Z,49.30
2018-06-29T02:22:37.196Z,56.83
2018-06-29T02:25:06.601Z,55.33
2018-06-29T02:27:35.862Z,56.40
2018-06-29T02:30:05.586Z,54.90
2018-06-29T02:32:35.158Z,69.05
2018-06-29T02:35:04.433Z,57.53
2018-06-29T02:37:33.757Z,58.20
2018-06-29T02:40:03.079Z,70.43
2018-06-29T02:42:32.367Z,53.70
2018-06-29T02:45:01.593Z,63.87
2018-06-29T02:47:30.776Z,48.60
2018-06-29T02:50:00.064Z,57.53
2018-06-29T02:52:30.053Z,63.33
2018-06-29T02:54:59.289Z,64.13
2018-06-29T02:57:28.536Z,61.40
2018-06-29T02:59:57.706Z,60.60
2018-06-29T03:02:26.915Z,62.63
2018-06-29T03:04:56.257Z,57.20
2018-06-29T03:07:26.079Z,52.85
2018-06-29T03:09:55.419Z,51.07
2018-06-29T03:12:24.603Z,58.33
2018-06-29T03:14:53.741Z,48.73
2018-06-29T03:17:23.096Z,51.15
2018-06-29T03:19:52.433Z,53.77
2018-06-29T03:22:21.718Z,48.30
2018-06-29T03:24:50.898Z,50.20
2018-06-29T03:27:20.128Z,49.10
2018-06-29T03:29:49.364Z,48.47
2018-06-29T03:32:18.569Z,45.17
2018-06-29T03:34:47.806Z,47.77
2018-06-29T03:37:16.976Z,46.08
2018-06-29T03:39:46.145Z,40.60
2018-06-29T03:42:15.323Z,42.03
2018-06-29T03:44:44.511Z,39.07
2018-06-29T03:47:13.725Z,40.53
2018-06-29T03:49:42.958Z,34.97
2018-06-29T03:52:12.134Z,35.73
2018-06-29T03:54:41.478Z,37.90
2018-06-29T03:57:11.674Z,34.55
2018-06-29T03:59:40.836Z,37.87
2018-06-29T04:02:10.104Z,37.97
2018-06-29T04:04:39.420Z,37.60
2018-06-29T04:07:08.948Z,31.83
2018-06-29T04:09:38.161Z,39.50
2018-06-29T04:12:09.898Z,37.40
2018-06-29T04:14:39.145Z,36.97
2018-06-29T04:17:08.550Z,39.60
2018-06-29T04:19:37.788Z,43.70
2018-06-29T04:22:07.107Z,36.03
2018-06-29T04:24:36.320Z,41.37
2018-06-29T04:27:05.866Z,42.00
2018-06-29T04:29:35.224Z,36.97
2018-06-29T04:32:04.463Z,36.10
2018-06-29T04:34:33.643Z,31.33
2018-06-29T04:37:02.836Z,29.87
2018-06-29T04:39:32.013Z,29.33
2018-06-29T04:42:01.217Z,29.20
2018-06-29T04:44:30.527Z,27.17
2018-06-29T04:47:00.014Z,27.73
2018-06-29T04:49:29.163Z,23.37
2018-06-29T04:51:58.388Z,22.00
2018-06-29T04:54:27.622Z,23.20
2018-06-29T04:56:56.802Z,24.67
2018-06-29T04:59:26.002Z,21.10
2018-06-29T05:01:55.177Z,20.20
2018-06-29T05:04:24.373Z,18.80
2018-06-29T05:06:53.628Z,18.70
2018-06-29T05:09:22.780Z,19.50
2018-06-29T05:11:52.133Z,20.63
2018-06-29T05:14:21.379Z,28.60
2018-06-29T05:16:50.638Z,18.57
2018-06-29T05:19:19.826Z,31.62
2018-06-29T05:21:48.991Z,17.10
2018-06-29T05:24:18.141Z,20.47
2018-06-29T05:26:47.333Z,19.37
2018-06-29T05:29:16.580Z,17.17
2018-06-29T05:31:46.600Z,16.47
2018-06-29T05:34:15.824Z,16.60
2018-06-29T05:36:45.199Z,17.73
2018-06-29T05:39:14.398Z,17.53
2018-06-29T05:41:43.746Z,17.87
2018-06-29T05:44:12.785Z,19.13
2018-06-29T05:46:41.969Z,17.67
2018-06-29T05:49:11.241Z,17.07
2018-06-29T05:51:40.399Z,14.50
2018-06-29T05:54:09.572Z,16.90
2018-06-29T05:56:38.753Z,17.50
2018-06-29T05:59:08.066Z,18.77
2018-06-29T06:01:37.609Z,17.60
2018-06-29T06:04:06.782Z,15.00
2018-06-29T06:06:35.976Z,17.03
2018-06-29T06:09:07.943Z,14.75
2018-06-29T06:11:37.133Z,16.20
2018-06-29T06:14:07.280Z,12.97
2018-06-29T06:16:36.516Z,14.27
2018-06-29T06:19:17.164Z,14.27
2018-06-29T06:21:46.751Z,14.43
2018-06-29T06:24:17.076Z,16.00
2018-06-29T06:26:47.182Z,14.70
2018-06-29T06:29:16.385Z,16.95
2018-06-29T06:31:45.590Z,16.93
2018-06-29T06:34:15.189Z,15.83
2018-06-29T06:36:44.356Z,15.97
2018-06-29T06:39:13.582Z,14.73
2018-06-29T06:41:43.284Z,14.93
2018-06-29T06:44:12.253Z,16.80
2018-06-29T06:46:41.984Z,16.60
2018-06-29T06:49:11.584Z,14.37
2018-06-29T06:51:40.744Z,17.37
2018-06-29T06:54:10.207Z,14.80
2018-06-29T06:56:39.400Z,16.13
2018-06-29T06:59:08.590Z,14.53
2018-06-29T07:01:37.750Z,12.90
2018-06-29T07:04:06.939Z,12.67
2018-06-29T07:06:36.162Z,12.50
2018-06-29T07:09:08.653Z,18.63
2018-06-29T07:11:37.904Z,17.73
2018-06-29T07:14:07.370Z,14.53
2018-06-29T07:16:36.889Z,15.97
2018-06-29T07:19:06.517Z,16.70
2018-06-29T07:21:35.789Z,16.37
2018-06-29T07:24:05.088Z,14.33
2018-06-29T07:26:34.312Z,17.70
2018-06-29T07:29:03.548Z,18.20
2018-06-29T07:31:32.813Z,18.90
2018-06-29T07:34:01.971Z,15.80
2018-06-29T07:36:31.182Z,17.07
2018-06-29T07:39:00.411Z,18.70
2018-06-29T07:41:29.580Z,17.30
2018-06-29T07:43:58.709Z,19.03
2018-06-29T07:46:27.868Z,16.63
2018-06-29T07:48:57.036Z,15.93
2018-06-29T07:51:26.290Z,15.38
2018-06-29T07:53:55.473Z,14.73
2018-06-29T07:56:24.751Z,14.27
2018-06-29T07:58:54.016Z,17.63
2018-06-29T08:01:23.090Z,16.23
2018-06-29T08:03:52.342Z,14.30
2018-06-29T08:06:21.474Z,16.13
2018-06-29T08:08:50.664Z,16.23
2018-06-29T08:11:19.821Z,15.30
2018-06-29T08:13:49.009Z,15.43
2018-06-29T08:16:18.277Z,17.93
2018-06-29T08:18:47.440Z,13.60
2018-06-29T08:21:16.642Z,12.87
2018-06-29T08:23:45.816Z,14.57
2018-06-29T08:26:21.792Z,12.23
2018-06-29T08:28:51.124Z,15.10
2018-06-29T08:31:20.301Z,12.97
2018-06-29T08:33:49.557Z,13.40
2018-06-29T08:36:18.834Z,12.27
2018-06-29T08:38:48.024Z,14.53
2018-06-29T08:41:17.258Z,14.80
2018-06-29T08:43:46.450Z,16.57
2018-06-29T08:46:15.633Z,16.73
2018-06-29T08:48:44.802Z,15.77
2018-06-29T08:51:13.944Z,16.80
2018-06-29T08:53:43.124Z,16.70
2018-06-29T08:56:12.340Z,16.20
2018-06-29T08:58:41.599Z,14.70
2018-06-29T09:01:10.797Z,17.00
2018-06-29T09:03:39.970Z,14.80
2018-06-29T09:06:09.528Z,15.40
2018-06-29T09:08:38.795Z,14.63
2018-06-29T09:11:08.153Z,14.67
2018-06-29T09:13:37.434Z,13.83
2018-06-29T09:16:06.694Z,14.47
2018-06-29T09:18:35.877Z,15.90
2018-06-29T09:21:05.088Z,13.90
2018-06-29T09:23:34.260Z,15.13
2018-06-29T09:26:03.611Z,14.80
2018-06-29T09:28:32.901Z,14.30
2018-06-29T09:31:02.079Z,18.27
2018-06-29T09:33:31.245Z,15.45
2018-06-29T09:36:00.401Z,14.40
2018-06-29T09:38:29.690Z,12.70
2018-06-29T09:40:58.878Z,13.57
2018-06-29T09:43:28.102Z,14.30
2018-06-29T09:45:57.273Z,13.53
2018-06-29T09:48:26.473Z,12.90
2018-06-29T09:50:55.847Z,12.47
2018-06-29T09:53:25.066Z,12.67
2018-06-29T09:55:54.418Z,13.67
2018-06-29T09:58:23.683Z,12.57
2018-06-29T10:00:55.414Z,12.43
2018-06-29T10:03:22.472Z,14.10
2018-06-29T10:05:51.774Z,14.43
2018-06-29T10:08:20.978Z,12.30
2018-06-29T10:10:50.271Z,13.17
2018-06-29T10:13:19.517Z,13.30
2018-06-29T10:15:48.878Z,13.60
2018-06-29T10:18:18.180Z,12.67
2018-06-29T10:20:47.466Z,12.43
2018-06-29T10:23:18.133Z,14.17
2018-06-29T10:25:47.420Z,13.50
2018-06-29T10:28:16.709Z,13.70
2018-06-29T10:30:46.082Z,13.70
2018-06-29T10:33:15.392Z,14.75
2018-06-29T10:35:44.969Z,14.00
2018-06-29T10:38:14.161Z,15.30
2018-06-29T10:40:43.580Z,16.10
2018-06-29T10:43:13.024Z,15.43
2018-06-29T10:45:42.183Z,15.43
2018-06-29T10:48:11.437Z,16.90
2018-06-29T10:50:40.718Z,23.23
2018-06-29T10:53:10.128Z,25.80
2018-06-29T10:55:39.546Z,25.83
2018-06-29T10:58:09.083Z,23.43
2018-06-29T11:00:41.226Z,22.80
2018-06-29T11:03:11.014Z,24.07
2018-06-29T11:05:40.223Z,44.20
2018-06-29T11:08:09.432Z,22.57
2018-06-29T11:10:38.621Z,21.20
2018-06-29T11:13:07.954Z,20.80
2018-06-29T11:15:37.208Z,17.82
2018-06-29T11:18:06.790Z,15.13
2018-06-29T11:20:35.977Z,17.07
2018-06-29T11:23:05.629Z,16.37
2018-06-29T11:25:34.891Z,15.20
2018-06-29T11:28:04.352Z,15.13
2018-06-29T11:30:33.532Z,15.93
2018-06-29T11:33:02.713Z,15.43
2018-06-29T11:35:31.931Z,17.23
2018-06-29T11:38:01.109Z,16.80
2018-06-29T11:40:30.398Z,21.80
2018-06-29T11:42:59.536Z,17.43
2018-06-29T11:45:28.816Z,15.55
2018-06-29T11:47:57.989Z,17.60
2018-06-29T11:50:27.185Z,16.63
2018-06-29T11:52:56.398Z,15.40
2018-06-29T11:55:25.600Z,16.50
2018-06-29T11:57:54.796Z,14.57
2018-06-29T12:00:24.035Z,16.33
2018-06-29T12:02:54.138Z,15.40
2018-06-29T12:05:23.448Z,16.90
2018-06-29T12:07:53.035Z,15.77
2018-06-29T12:10:22.066Z,14.37
2018-06-29T12:12:51.322Z,17.30
2018-06-29T12:15:20.750Z,15.03
2018-06-29T12:17:50.478Z,21.63
2018-06-29T12:20:19.990Z,16.93
2018-06-29T12:22:49.223Z,15.50
2018-06-29T12:25:18.463Z,14.80
2018-06-29T12:27:47.796Z,14.60
2018-06-29T12:30:17.030Z,15.97
2018-06-29T12:32:46.391Z,14.83
2018-06-29T12:35:15.545Z,14.23
2018-06-29T12:37:44.737Z,17.47
2018-06-29T12:40:14.075Z,16.43
2018-06-29T12:42:43.350Z,18.23
2018-06-29T12:45:12.556Z,17.27
2018-06-29T12:47:42.770Z,17.57
2018-06-29T12:50:12.001Z,16.60
2018-06-29T12:52:41.640Z,15.53
2018-06-29T12:55:11.673Z,16.30
2018-06-29T12:57:41.440Z,16.43
2018-06-29T13:00:11.569Z,16.10
2018-06-29T13:02:40.833Z,14.90
2018-06-29T13:05:10.100Z,13.70
2018-06-29T13:07:39.336Z,14.57
2018-06-29T13:10:08.531Z,14.07
2018-06-29T13:12:37.849Z,16.75
2018-06-29T13:15:07.462Z,15.50
2018-06-29T13:17:38.004Z,12.93
2018-06-29T13:20:07.886Z,14.83
2018-06-29T13:22:37.164Z,14.73
2018-06-29T13:25:06.525Z,12.10
2018-06-29T13:27:35.778Z,13.77
2018-06-29T13:30:05.498Z,20.03
2018-06-29T13:32:34.703Z,14.17
2018-06-29T13:35:03.987Z,14.83
2018-06-29T13:37:33.277Z,15.07
2018-06-29T13:40:02.704Z,17.03
2018-06-29T13:42:31.854Z,14.30
2018-06-29T13:45:01.284Z,13.87
2018-06-29T13:47:30.513Z,13.13
2018-06-29T13:49:59.764Z,14.27
2018-06-29T13:52:29.101Z,21.93
2018-06-29T13:54:58.467Z,12.70
2018-06-29T13:57:27.698Z,11.90
2018-06-29T13:59:56.894Z,13.53
2018-06-29T14:02:26.570Z,12.73
2018-06-29T14:04:55.791Z,14.67
2018-06-29T14:07:24.962Z,13.43
2018-06-29T14:09:54.162Z,15.60
2018-06-29T14:12:23.634Z,18.73
2018-06-29T14:14:52.917Z,15.27
2018-06-29T14:17:22.113Z,14.58
2018-06-29T14:19:51.419Z,14.50
2018-06-29T14:22:20.678Z,14.00
2018-06-29T14:24:49.994Z,16.20
2018-06-29T14:27:20.835Z,14.53
2018-06-29T14:29:50.553Z,16.37
2018-06-29T14:32:19.798Z,14.17
2018-06-29T14:34:49.115Z,15.13
2018-06-29T14:37:18.317Z,14.13
2018-06-29T14:39:47.529Z,14.97
2018-06-29T14:42:16.827Z,20.07
2018-06-29T14:44:46.167Z,15.57
2018-06-29T14:47:15.400Z,15.30
2018-06-29T14:49:44.718Z,13.27
2018-06-29T14:52:13.912Z,13.23
2018-06-29T14:54:43.327Z,12.13
2018-06-29T14:57:12.562Z,12.07
2018-06-29T14:59:41.945Z,14.17
2018-06-29T15:02:11.185Z,10.50
2018-06-29T15:04:40.457Z,10.10
2018-06-29T15:07:11.390Z,12.07
2018-06-29T15:09:40.712Z,11.70
2018-06-29T15:12:10.606Z,13.23
2018-06-29T15:14:40.018Z,11.73
2018-06-29T15:17:10.370Z,11.60
2018-06-29T15:19:40.166Z,10.60
2018-06-29T15:22:09.734Z,20.20
2018-06-29T15:24:38.965Z,10.90
2018-06-29T15:27:08.593Z,11.40
2018-06-29T15:29:38.594Z,15.55
2018-06-29T15:32:07.956Z,11.83
2018-06-29T15:34:37.243Z,11.60
2018-06-29T15:37:07.131Z,12.60
2018-06-29T15:39:36.648Z,12.70
2018-06-29T15:42:06.126Z,12.63
2018-06-29T15:44:35.559Z,13.30
2018-06-29T15:47:05.195Z,13.63
2018-06-29T15:49:35.091Z,12.20
2018-06-29T15:52:04.494Z,11.73
2018-06-29T15:54:35.547Z,13.03
2018-06-29T15:57:05.339Z,14.50
2018-06-29T15:59:35.073Z,12.47
2018-06-29T16:02:04.724Z,12.53
2018-06-29T16:04:34.152Z,15.77
2018-06-29T16:07:07.468Z,11.60
2018-06-29T16:09:37.344Z,12.18
2018-06-29T16:12:06.713Z,10.40
2018-06-29T16:14:36.195Z,12.43
2018-06-29T16:17:05.746Z,17.20
2018-06-29T16:19:35.624Z,11.50
2018-06-29T16:22:09.527Z,12.33
2018-06-29T16:24:51.037Z,12.40
2018-06-29T16:27:20.929Z,12.10
2018-06-29T16:29:51.402Z,12.05
2018-06-29T16:32:21.785Z,11.10
2018-06-29T16:34:55.757Z,14.23
2018-06-29T16:37:25.239Z,11.38
2018-06-29T16:39:54.920Z,12.23
2018-06-29T16:42:28.791Z,12.77
2018-06-29T16:44:58.646Z,10.13
2018-06-29T16:47:37.446Z,10.70
2018-06-29T16:50:06.934Z,11.40
2018-06-29T16:52:36.789Z,11.83
2018-06-29T16:55:07.446Z,12.20
2018-06-29T16:57:38.950Z,11.63
2018-06-29T17:00:09.647Z,11.63
2018-06-29T17:02:39.547Z,11.60
2018-06-29T17:05:09.638Z,12.37
2018-06-29T17:07:43.182Z,11.57
2018-06-29T17:10:13.971Z,14.13
2018-06-29T17:12:45.135Z,14.00
2018-06-29T17:15:15.988Z,13.65
2018-06-29T17:17:47.705Z,14.00
2018-06-29T17:20:17.834Z,14.37
2018-06-29T17:22:54.520Z,15.40
2018-06-29T17:25:23.815Z,17.67
2018-06-29T17:27:54.596Z,18.00
2018-06-29T17:30:24.130Z,18.03
2018-06-29T17:32:53.411Z,22.43
2018-06-29T17:35:22.752Z,20.23
2018-06-29T17:37:52.304Z,21.67
2018-06-29T17:40:21.675Z,20.47
2018-06-29T17:42:50.949Z,19.53
2018-06-29T17:45:20.259Z,21.57
2018-06-29T17:47:49.642Z,20.70
2018-06-29T17:50:19.178Z,20.67
2018-06-29T17:52:48.439Z,21.33
2018-06-29T17:55:22.236Z,21.70
2018-06-29T17:57:53.323Z,18.90
2018-06-29T18:00:23.409Z,22.10
2018-06-29T18:02:52.713Z,20.43
2018-06-29T18:05:22.038Z,19.60
2018-06-29T18:07:51.523Z,19.73
2018-06-29T18:10:24.139Z,23.50
2018-06-29T18:12:53.517Z,19.93
2018-06-29T18:15:22.709Z,20.00
2018-06-29T18:17:52.315Z,21.93
2018-06-29T18:20:21.637Z,20.77
2018-06-29T18:22:50.917Z,21.80
2018-06-29T18:25:20.240Z,21.87
2018-06-29T18:27:49.740Z,22.50
2018-06-29T18:30:22.013Z,22.37
2018-06-29T18:32:51.641Z,20.93
2018-06-29T18:35:21.181Z,22.20
2018-06-29T18:37:50.569Z,23.00
2018-06-29T18:40:20.314Z,21.70
2018-06-29T18:42:49.721Z,21.00
2018-06-29T18:45:19.279Z,22.30
2018-06-29T18:47:48.762Z,25.43
2018-06-29T18:50:18.124Z,20.97
2018-06-29T18:52:47.663Z,22.07
2018-06-29T18:55:17.090Z,21.80
2018-06-29T18:57:46.540Z,23.10
2018-06-29T19:00:18.677Z,21.83
2018-06-29T19:02:48.551Z,22.70
2018-06-29T19:05:18.002Z,26.93
2018-06-29T19:07:47.728Z,21.70
2018-06-29T19:10:17.468Z,20.33
2018-06-29T19:12:47.038Z,22.37
2018-06-29T19:15:16.393Z,19.47
2018-06-29T19:17:45.817Z,20.77
2018-06-29T19:20:15.232Z,20.10
2018-06-29T19:22:44.852Z,18.80
2018-06-29T19:25:15.230Z,18.43
2018-06-29T19:27:44.871Z,20.23
2018-06-29T19:30:14.227Z,18.57
2018-06-29T19:32:44.343Z,19.05
2018-06-29T19:35:14.947Z,19.27
2018-06-29T19:37:44.619Z,21.73
2018-06-29T19:40:14.139Z,20.37
2018-06-29T19:42:45.656Z,19.10
2018-06-29T19:47:50.407Z,19.60
2018-06-29T19:50:20.455Z,20.57
2018-06-29T19:52:50.125Z,21.50
2018-06-29T19:55:20.389Z,20.90
2018-06-29T19:57:53.300Z,19.23
2018-06-29T20:00:30.773Z,22.00
2018-06-29T20:03:00.048Z,21.27
2018-06-29T20:05:29.803Z,23.90
2018-06-29T20:08:01.012Z,24.50
2018-06-29T20:10:31.541Z,25.87
2018-06-29T20:13:04.291Z,22.00
2018-06-29T20:15:37.134Z,22.13
2018-06-29T20:18:06.690Z,24.67
2018-06-29T20:20:37.396Z,25.20
2018-06-29T20:23:07.987Z,24.23
2018-06-29T20:25:39.724Z,26.23
2018-06-29T20:28:08.987Z,26.50
2018-06-29T20:30:38.293Z,24.50
2018-06-29T20:33:08.067Z,24.17
2018-06-29T20:35:37.510Z,23.10
2018-06-29T20:38:10.950Z,23.77
2018-06-29T20:40:40.269Z,23.07
2018-06-29T20:43:11.719Z,22.63
2018-06-29T20:45:41.131Z,23.93
2018-06-29T20:48:10.773Z,22.63
2018-06-29T20:50:42.172Z,24.60
2018-06-29T20:53:15.333Z,29.43
2018-06-29T20:55:44.842Z,21.53
2018-06-29T20:58:14.833Z,22.87
2018-06-29T21:00:50.630Z,23.00
2018-06-29T21:03:21.980Z,21.50
2018-06-29T21:05:51.322Z,21.62
2018-06-29T21:08:20.932Z,22.10
2018-06-29T21:10:51.001Z,21.83
2018-06-29T21:13:20.331Z,21.90
2018-06-29T21:15:49.587Z,22.73
2018-06-29T21:18:18.968Z,22.20
2018-06-29T21:20:49.299Z,20.80
2018-06-29T21:23:18.876Z,27.20
2018-06-29T21:25:50.322Z,22.40
2018-06-29T21:28:23.287Z,27.30
2018-06-29T21:30:57.174Z,22.47
2018-06-29T21:33:26.556Z,22.27
2018-06-29T21:35:58.103Z,21.93
2018-06-29T21:38:27.737Z,20.70
2018-06-29T21:41:03.805Z,21.30
2018-06-29T21:43:33.141Z,32.33
2018-06-29T21:46:03.525Z,32.83
2018-06-29T21:48:32.981Z,24.70
2018-06-29T21:51:07.329Z,25.33
2018-06-29T21:53:38.348Z,27.33
2018-06-29T21:56:09.800Z,24.63
2018-06-29T21:58:39.565Z,25.43
2018-06-29T22:01:16.447Z,26.10
2018-06-29T22:03:45.903Z,24.63
2018-06-29T22:06:15.196Z,22.60
2018-06-29T22:08:45.454Z,26.47
2018-06-29T22:11:19.271Z,26.10
2018-06-29T22:13:52.806Z,23.33
2018-06-29T22:16:22.871Z,29.13
2018-06-29T22:18:52.817Z,31.53
2018-06-29T22:21:22.320Z,25.50
2018-06-29T22:23:53.611Z,24.40
2018-06-29T22:26:23.071Z,23.60
2018-06-29T22:28:53.612Z,24.80
2018-06-29T22:31:24.149Z,22.83
2018-06-29T22:33:53.727Z,23.23
2018-06-29T22:36:26.805Z,23.80
2018-06-29T22:38:56.544Z,23.03
2018-06-29T22:41:26.166Z,28.05
2018-06-29T22:43:56.071Z,24.47
2018-06-29T22:46:28.320Z,25.27
2018-06-29T22:48:58.865Z,24.70
2018-06-29T22:51:28.201Z,22.80
2018-06-29T22:53:57.500Z,25.37
2018-06-29T22:56:29.742Z,27.00
2018-06-29T22:58:59.179Z,26.70
2018-06-29T23:01:28.890Z,25.87
2018-06-29T23:03:58.194Z,25.80
2018-06-29T23:06:27.492Z,26.33
2018-06-29T23:08:59.049Z,26.80
2018-06-29T23:11:28.358Z,23.90
2018-06-29T23:13:57.642Z,24.83
2018-06-29T23:16:26.858Z,24.67
2018-06-29T23:18:56.323Z,26.10
2018-06-29T23:21:25.663Z,24.60
2018-06-29T23:23:55.469Z,27.13
2018-06-29T23:26:27.612Z,23.47
2018-06-29T23:28:56.953Z,23.07
2018-06-29T23:31:26.210Z,22.17
2018-06-29T23:33:55.765Z,25.27
2018-06-29T23:36:25.088Z,30.27
2018-06-29T23:38:55.170Z,26.00
2018-06-29T23:41:24.510Z,23.85
2018-06-29T23:43:53.919Z,23.75
2018-06-29T23:46:25.169Z,28.17
2018-06-29T23:48:55.486Z,22.73
2018-06-29T23:51:25.455Z,26.52
2018-06-29T23:53:55.368Z,24.90
2018-06-29T23:56:26.030Z,30.20
2018-06-29T23:58:55.290Z,26.27
